Time;durP1;ratioP1;P1;durP2;ratioP2;P2;SDS_P1;SDS_P2;PMS_P1;PMS_P2;Temp;Humidity;BMP_temperature;BMP_pressure;BME280_temperature;BME280_humidity;BME280_pressure;Samples;Min_cycle;Max_cycle;Signal;HPM_P1;HPM_P2
2023/01/05 00:01:35;;;;;;;13.27;8.70;;;7.50;99.90;;;;;;5055758;28;20295;-73
2023/01/05 00:04:03;;;;;;;13.00;8.77;;;7.50;99.90;;;;;;5073472;28;20232;-71
2023/01/05 00:06:30;;;;;;;14.50;8.57;;;7.60;99.90;;;;;;5056650;28;20209;-73
2023/01/05 00:08:58;;;;;;;13.27;8.40;;;7.60;99.90;;;;;;5036074;28;20216;-69
2023/01/05 00:22:50;;;;;;;11.30;8.10;;;7.70;99.90;;;;;;5054920;28;20540;-86
2023/01/05 00:25:23;;;;;;;12.00;7.83;;;7.70;99.90;;;;;;5037091;28;20203;-79
2023/01/05 00:27:52;;;;;;;11.60;8.00;;;7.70;99.90;;;;;;5020700;28;20215;-78
2023/01/05 00:30:22;;;;;;;10.73;7.67;;;7.70;99.90;;;;;;5020628;28;20208;-87
2023/01/05 00:32:49;;;;;;;13.03;8.03;;;7.70;99.90;;;;;;5037564;28;20209;-86
2023/01/05 00:35:17;;;;;;;11.73;8.07;;;7.80;99.90;;;;;;5019722;28;20588;-87
2023/01/05 00:37:44;;;;;;;13.03;7.80;;;7.80;99.90;;;;;;5020528;28;20251;-86
2023/01/05 00:40:14;;;;;;;10.40;6.97;;;7.90;99.90;;;;;;5068571;28;20255;-86
2023/01/05 00:42:41;;;;;;;10.20;7.23;;;7.80;99.90;;;;;;5056423;28;20664;-91
2023/01/05 00:45:10;;;;;;;11.37;7.90;;;7.80;99.90;;;;;;5073563;28;20668;-73
2023/01/05 00:47:37;;;;;;;10.90;7.70;;;7.80;99.90;;;;;;5055606;28;20734;-74
2023/01/05 00:50:06;;;;;;;12.30;7.50;;;7.90;99.90;;;;;;5049320;28;20569;-72
2023/01/05 00:52:33;;;;;;;11.77;7.10;;;7.90;99.90;;;;;;5054955;28;20201;-72
2023/01/05 00:55:00;;;;;;;9.90;6.80;;;8.00;99.90;;;;;;5051685;28;20213;-72
2023/01/05 00:57:27;;;;;;;9.97;6.80;;;7.90;99.90;;;;;;5035093;28;20283;-75
2023/01/05 00:59:54;;;;;;;9.60;6.53;;;8.00;99.90;;;;;;5052422;28;20208;-73
2023/01/05 01:02:21;;;;;;;9.53;6.77;;;8.00;99.90;;;;;;5053378;28;20245;-73
2023/01/05 01:04:48;;;;;;;9.50;6.50;;;8.00;99.90;;;;;;5035276;28;20223;-73
2023/01/05 01:07:15;;;;;;;10.23;6.53;;;8.00;99.90;;;;;;5052968;28;20194;-74
2023/01/05 01:09:42;;;;;;;10.03;7.10;;;8.00;99.90;;;;;;5035345;28;20201;-74
2023/01/05 01:12:09;;;;;;;11.47;6.70;;;7.90;99.90;;;;;;5051638;28;20694;-74
2023/01/05 01:14:37;;;;;;;9.27;6.93;;;7.90;99.90;;;;;;5052926;28;20254;-74
2023/01/05 01:17:04;;;;;;;12.60;7.37;;;7.90;99.90;;;;;;5035382;28;20241;-73
2023/01/05 01:19:31;;;;;;;10.43;6.90;;;8.00;99.90;;;;;;5051887;28;20209;-72
2023/01/05 01:21:58;;;;;;;9.80;7.00;;;7.90;99.90;;;;;;5034921;28;20197;-73
2023/01/05 01:24:26;;;;;;;11.17;6.53;;;7.90;99.90;;;;;;5053110;28;20208;-73
2023/01/05 01:26:56;;;;;;;11.47;6.67;;;7.90;99.90;;;;;;5034670;28;20591;-76
2023/01/05 01:29:28;;;;;;;8.97;6.23;;;7.80;99.90;;;;;;5019347;28;20204;-82
2023/01/05 01:31:55;;;;;;;9.77;6.77;;;7.80;99.90;;;;;;5051711;28;20753;-77
2023/01/05 01:34:22;;;;;;;8.93;6.27;;;7.80;99.90;;;;;;5052766;28;20214;-76
2023/01/05 01:36:49;;;;;;;11.13;6.87;;;7.80;99.90;;;;;;5035103;28;20569;-83
2023/01/05 01:39:16;;;;;;;9.90;6.73;;;7.80;99.90;;;;;;5052587;28;20326;-84
2023/01/05 01:41:46;;;;;;;9.60;7.30;;;7.80;99.90;;;;;;5052551;28;20224;-87
2023/01/05 01:44:50;;;;;;;9.70;6.80;;;7.80;99.90;;;;;;5043670;28;20221;-80
2023/01/05 01:47:22;;;;;;;9.57;6.30;;;7.80;99.90;;;;;;5058491;28;20201;-78
2023/01/05 01:49:50;;;;;;;9.40;6.23;;;7.80;99.90;;;;;;5040910;28;20585;-85
2023/01/05 01:52:19;;;;;;;9.83;6.50;;;7.80;99.90;;;;;;5055687;28;20194;-78
2023/01/05 01:54:47;;;;;;;8.33;5.97;;;7.80;99.90;;;;;;5055480;28;20585;-76
2023/01/05 01:57:14;;;;;;;9.80;6.07;;;7.80;99.90;;;;;;5038852;28;20206;-81
2023/01/05 01:59:42;;;;;;;9.87;6.60;;;7.80;99.90;;;;;;5056119;28;20209;-83
2023/01/05 02:02:11;;;;;;;9.27;6.27;;;7.80;99.90;;;;;;5038937;28;20197;-86
2023/01/05 02:04:39;;;;;;;8.23;6.13;;;7.80;99.90;;;;;;5039453;28;20698;-85
2023/01/05 02:07:11;;;;;;;8.30;6.20;;;7.80;99.90;;;;;;5057085;28;20193;-81
2023/01/05 02:09:37;;;;;;;8.07;5.57;;;7.90;99.90;;;;;;5038993;28;20201;-80
2023/01/05 02:12:41;;;;;;;7.80;5.40;;;7.90;99.90;;;;;;5038553;28;20292;-79
2023/01/05 02:15:28;;;;;;;7.20;5.40;;;7.90;99.90;;;;;;5038373;28;20203;-80
2023/01/05 02:18:01;;;;;;;7.00;5.30;;;8.00;99.90;;;;;;5038835;28;20194;-80
2023/01/05 02:20:28;;;;;;;7.33;5.50;;;7.90;99.90;;;;;;5022544;28;20191;-81
2023/01/05 02:23:21;;;;;;;8.63;5.60;;;8.00;99.90;;;;;;5039598;28;20237;-87
2023/01/05 02:26:04;;;;;;;6.40;5.03;;;8.00;99.90;;;;;;5038373;28;20557;-78
2023/01/05 02:29:00;;;;;;;8.07;4.97;;;8.10;99.90;;;;;;5038218;28;20284;-80
2023/01/05 02:31:36;;;;;;;8.53;5.07;;;8.10;99.90;;;;;;5040477;28;20236;-92
2023/01/05 02:34:12;;;;;;;6.37;4.50;;;8.20;99.90;;;;;;5041577;28;20218;-91
2023/01/05 02:37:11;;;;;;;5.03;4.37;;;8.20;99.90;;;;;;5041145;28;20202;-89
2023/01/05 02:40:09;;;;;;;5.83;4.30;;;8.30;99.90;;;;;;5050848;23;20233;-79
2023/01/05 02:42:40;;;;;;;7.00;4.20;;;8.30;99.90;;;;;;5080794;28;20539;-91
2023/01/05 02:45:10;;;;;;;4.90;3.87;;;8.40;99.90;;;;;;5097343;28;20218;-92
2023/01/05 02:47:48;;;;;;;6.00;4.30;;;8.40;99.90;;;;;;5063904;28;20196;-93
2023/01/05 02:50:35;;;;;;;6.73;4.00;;;8.40;99.90;;;;;;5061867;28;20195;-81
2023/01/05 02:53:24;;;;;;;4.30;3.50;;;8.40;99.90;;;;;;5096271;28;20192;-76
2023/01/05 02:55:59;;;;;;;4.33;3.43;;;8.40;99.90;;;;;;5097005;28;20261;-84
2023/01/05 02:58:40;;;;;;;5.97;3.87;;;8.40;99.90;;;;;;5097796;28;20203;-94
2023/01/05 03:01:23;;;;;;;5.33;3.70;;;8.50;99.90;;;;;;5078577;28;20272;-91
2023/01/05 03:04:05;;;;;;;4.50;3.40;;;8.50;99.90;;;;;;5100552;28;20566;-93
2023/01/05 03:06:34;;;;;;;4.50;3.80;;;8.50;99.90;;;;;;5078361;28;20211;-80
2023/01/05 03:09:05;;;;;;;4.50;3.70;;;8.60;99.90;;;;;;5063779;28;20192;-95
2023/01/05 03:14:51;;;;;;;6.27;4.10;;;8.60;99.90;;;;;;5098158;28;20278;-94
2023/01/05 03:17:41;;;;;;;5.77;4.17;;;8.60;99.90;;;;;;5078093;28;20201;-78
2023/01/05 03:20:13;;;;;;;5.93;3.83;;;8.60;99.90;;;;;;5079008;28;20197;-86
2023/01/05 03:40:10;;;;;;;5.83;3.27;;;8.60;99.90;;;;;;4919171;29;20252;-77
2023/01/05 03:42:37;;;;;;;4.57;3.20;;;8.60;99.90;;;;;;4936095;29;20675;-75
2023/01/05 03:45:06;;;;;;;4.10;3.20;;;8.60;99.90;;;;;;4920606;29;20613;-88
2023/01/05 03:47:32;;;;;;;5.43;3.50;;;8.50;99.90;;;;;;4905276;29;20661;-88
2023/01/05 03:49:59;;;;;;;5.40;3.30;;;8.60;99.90;;;;;;4921991;29;20599;-92
2023/01/05 03:52:26;;;;;;;5.30;3.50;;;8.50;99.90;;;;;;4922421;29;20203;-90
2023/01/05 03:54:55;;;;;;;4.60;3.50;;;8.40;99.90;;;;;;4937433;29;20198;-84
2023/01/05 03:57:25;;;;;;;5.93;3.60;;;8.40;99.90;;;;;;4921273;29;20227;-80
2023/01/05 03:59:52;;;;;;;4.10;3.23;;;8.40;99.90;;;;;;4937326;29;20297;-89
2023/01/05 04:02:19;;;;;;;4.13;3.10;;;8.40;99.90;;;;;;4921552;29;20533;-91
2023/01/05 04:04:47;;;;;;;5.30;3.37;;;8.40;99.90;;;;;;4937253;29;20227;-82
2023/01/05 04:07:13;;;;;;;4.33;3.00;;;8.50;99.90;;;;;;4921222;29;20289;-80
2023/01/05 04:09:40;;;;;;;4.03;2.93;;;8.30;99.90;;;;;;4936762;29;20217;-84
2023/01/05 04:12:07;;;;;;;5.40;3.00;;;8.30;99.90;;;;;;4920597;29;20278;-88
2023/01/05 04:14:34;;;;;;;3.23;2.30;;;8.30;99.90;;;;;;4920624;29;20226;-93
2023/01/05 04:17:03;;;;;;;2.97;2.30;;;8.30;99.90;;;;;;4936090;29;20226;-89
2023/01/05 04:19:36;;;;;;;3.30;1.90;;;8.30;99.90;;;;;;4921583;29;20202;-82
2023/01/05 04:22:05;;;;;;;3.93;1.90;;;8.20;99.90;;;;;;4936297;29;20667;-84
2023/01/05 04:24:32;;;;;;;3.10;1.93;;;8.30;99.90;;;;;;4963336;23;20583;-89
2023/01/05 04:26:59;;;;;;;3.57;2.10;;;8.30;99.90;;;;;;4994784;28;20227;-90
2023/01/05 04:29:26;;;;;;;2.10;1.83;;;8.30;99.90;;;;;;4995531;28;20279;-89
2023/01/05 04:31:53;;;;;;;2.00;1.80;;;8.30;99.90;;;;;;5010756;28;20207;-92
2023/01/05 04:34:20;;;;;;;3.73;1.83;;;8.30;99.90;;;;;;5002583;28;20224;-90
2023/01/05 04:36:48;;;;;;;1.80;1.70;;;8.30;99.90;;;;;;5029897;28;20567;-90
2023/01/05 04:39:15;;;;;;;2.90;1.97;;;8.20;99.90;;;;;;5015738;28;20203;-90
2023/01/05 04:41:44;;;;;;;2.63;1.77;;;8.20;99.90;;;;;;5015926;28;20203;-82
2023/01/05 04:44:11;;;;;;;3.90;2.03;;;8.20;99.90;;;;;;5016213;28;20219;-86
2023/01/05 04:46:38;;;;;;;2.47;2.07;;;8.10;99.90;;;;;;5031598;28;20303;-88
2023/01/05 04:49:04;;;;;;;2.40;2.10;;;8.10;99.90;;;;;;5030326;28;20224;-89
2023/01/05 04:51:31;;;;;;;3.63;2.17;;;8.10;99.90;;;;;;5015160;28;20569;-89
2023/01/05 04:53:58;;;;;;;3.23;2.30;;;8.10;99.90;;;;;;5009118;23;20262;-91
2023/01/05 04:56:25;;;;;;;3.37;2.43;;;8.20;99.90;;;;;;4977650;28;20197;-86
2023/01/05 04:58:52;;;;;;;2.90;2.60;;;8.10;99.90;;;;;;4978124;28;20300;-85
2023/01/05 05:01:19;;;;;;;4.50;2.83;;;8.10;99.90;;;;;;4977501;28;20645;-85
2023/01/05 05:03:46;;;;;;;4.10;3.03;;;8.10;99.90;;;;;;4977607;28;20216;-87
2023/01/05 05:06:13;;;;;;;3.90;2.87;;;8.10;99.90;;;;;;4977331;28;20209;-87
2023/01/05 05:08:40;;;;;;;3.40;2.90;;;8.10;99.90;;;;;;4977211;28;20658;-90
2023/01/05 05:11:07;;;;;;;4.17;2.70;;;8.10;99.90;;;;;;4995232;28;20204;-88
2023/01/05 05:13:34;;;;;;;4.20;2.80;;;8.10;99.90;;;;;;4977200;28;20228;-90
2023/01/05 05:16:13;;;;;;;3.97;2.90;;;8.10;99.90;;;;;;4978930;28;20303;-80
2023/01/05 05:18:40;;;;;;;3.40;2.60;;;8.10;99.90;;;;;;4977493;28;20196;-79
2023/01/05 05:21:07;;;;;;;3.53;3.00;;;8.10;99.90;;;;;;4977283;28;20681;-83
2023/01/05 05:23:34;;;;;;;3.70;2.97;;;8.10;99.90;;;;;;4960672;28;20239;-84
2023/01/05 05:26:01;;;;;;;3.73;2.97;;;8.10;99.90;;;;;;4976532;28;20235;-86
2023/01/05 05:28:28;;;;;;;5.70;3.00;;;8.10;99.90;;;;;;4979061;28;20195;-88
2023/01/05 05:30:59;;;;;;;3.63;3.10;;;8.20;99.90;;;;;;4982548;28;20207;-94
2023/01/05 05:33:31;;;;;;;4.50;3.23;;;8.20;99.90;;;;;;4977925;28;20197;-89
2023/01/05 05:36:00;;;;;;;6.50;3.30;;;8.10;99.90;;;;;;4977086;28;20291;-82
2023/01/05 05:38:30;;;;;;;5.27;3.10;;;8.20;99.90;;;;;;4977230;28;20666;-91
2023/01/05 05:40:57;;;;;;;4.27;2.90;;;8.00;99.90;;;;;;4993956;28;20204;-85
2023/01/05 05:43:30;;;;;;;4.37;2.60;;;8.00;99.90;;;;;;4977585;28;20212;-85
2023/01/05 05:46:00;;;;;;;3.47;2.20;;;8.00;99.90;;;;;;4977184;28;20325;-90
2023/01/05 05:48:33;;;;;;;2.20;2.00;;;8.10;99.90;;;;;;4994656;28;20207;-90
2023/01/05 05:51:00;;;;;;;5.60;2.03;;;8.00;99.90;;;;;;4994600;28;20706;-89
2023/01/05 05:53:27;;;;;;;2.93;1.73;;;8.00;99.90;;;;;;4976891;28;20584;-90
2023/01/05 05:55:54;;;;;;;2.03;1.50;;;8.00;99.90;;;;;;4976915;28;20291;-88
2023/01/05 05:58:21;;;;;;;2.47;1.60;;;7.90;99.90;;;;;;4977379;28;20208;-89
2023/01/05 06:00:48;;;;;;;4.10;1.70;;;7.90;99.90;;;;;;4993998;28;20280;-88
2023/01/05 06:03:15;;;;;;;2.07;1.30;;;7.90;99.90;;;;;;4976592;28;20256;-87
2023/01/05 06:05:43;;;;;;;2.57;1.20;;;7.90;99.90;;;;;;4960974;28;20696;-87
2023/01/05 06:08:10;;;;;;;2.33;1.40;;;7.90;99.90;;;;;;4960453;28;20221;-86
2023/01/05 06:10:37;;;;;;;2.67;1.50;;;8.00;99.90;;;;;;4976248;28;20220;-83
2023/01/05 06:13:04;;;;;;;2.73;1.50;;;7.90;99.90;;;;;;4975827;28;20204;-83
2023/01/05 06:15:31;;;;;;;2.93;1.70;;;7.90;99.90;;;;;;4976727;28;20304;-84
2023/01/05 06:17:58;;;;;;;2.27;1.60;;;7.90;99.90;;;;;;4991990;28;20295;-86
2023/01/05 06:20:25;;;;;;;3.53;1.70;;;8.00;99.90;;;;;;4992970;28;20252;-86
2023/01/05 06:22:52;;;;;;;2.63;1.70;;;7.90;99.90;;;;;;4992363;28;20560;-86
2023/01/05 06:25:18;;;;;;;3.50;1.90;;;8.00;99.90;;;;;;4976194;28;20713;-85
2023/01/05 06:27:45;;;;;;;2.40;1.90;;;8.00;99.90;;;;;;4993514;28;20749;-88
2023/01/05 06:30:13;;;;;;;5.77;2.00;;;8.00;99.90;;;;;;4993008;28;20393;-85
2023/01/05 06:32:40;;;;;;;3.63;2.00;;;8.00;99.90;;;;;;4976202;28;20193;-85
2023/01/05 06:35:07;;;;;;;3.80;2.00;;;8.10;99.90;;;;;;4992437;28;20227;-86
2023/01/05 06:37:34;;;;;;;2.60;1.93;;;8.00;99.90;;;;;;4979180;28;20208;-85
2023/01/05 06:40:01;;;;;;;3.70;1.80;;;8.10;99.90;;;;;;4978711;28;20298;-82
2023/01/05 06:42:28;;;;;;;3.30;1.90;;;8.10;99.90;;;;;;4979897;28;20652;-80
2023/01/05 06:44:55;;;;;;;5.03;2.00;;;8.20;99.90;;;;;;4978301;28;20317;-85
2023/01/05 06:47:22;;;;;;;3.60;1.83;;;8.10;99.90;;;;;;4979231;28;20199;-85
2023/01/05 06:49:49;;;;;;;4.27;1.90;;;8.10;99.90;;;;;;4978631;28;20207;-89
2023/01/05 06:52:16;;;;;;;3.90;1.90;;;8.00;99.90;;;;;;4996218;28;20643;-84
2023/01/05 06:54:43;;;;;;;4.20;2.00;;;8.00;99.90;;;;;;4995722;28;20245;-83
2023/01/05 06:57:10;;;;;;;5.80;2.10;;;8.10;99.90;;;;;;4978618;28;20189;-78
2023/01/05 06:59:37;;;;;;;3.40;1.93;;;8.10;99.90;;;;;;4978650;28;20242;-81
2023/01/05 07:02:04;;;;;;;4.07;2.30;;;8.00;99.90;;;;;;4996314;28;20200;-85
2023/01/05 07:04:31;;;;;;;3.67;2.20;;;8.10;99.90;;;;;;4979029;28;21077;-84
2023/01/05 07:06:58;;;;;;;3.10;2.57;;;8.10;99.90;;;;;;4979260;28;20664;-78
2023/01/05 07:09:25;;;;;;;4.37;2.47;;;8.10;99.90;;;;;;4978423;28;20642;-81
2023/01/05 07:11:52;;;;;;;5.37;2.80;;;8.20;99.90;;;;;;4978822;28;20207;-80
2023/01/05 07:14:19;;;;;;;4.47;2.73;;;8.10;99.90;;;;;;4978325;28;20303;-78
2023/01/05 07:16:46;;;;;;;6.07;2.60;;;8.20;99.90;;;;;;4995725;28;20643;-78
2023/01/05 07:19:13;;;;;;;3.93;2.60;;;8.10;99.90;;;;;;4978594;28;20207;-80
2023/01/05 07:21:40;;;;;;;6.20;2.90;;;8.20;99.90;;;;;;4994733;28;20215;-77
2023/01/05 07:24:07;;;;;;;5.00;2.90;;;8.10;99.90;;;;;;4977937;28;20551;-80
2023/01/05 07:26:34;;;;;;;6.27;3.17;;;8.10;99.90;;;;;;4978189;28;20330;-78
2023/01/05 07:29:00;;;;;;;5.27;3.50;;;8.10;99.90;;;;;;4994122;28;20200;-79
2023/01/05 07:31:27;;;;;;;6.90;3.53;;;8.10;99.90;;;;;;4978161;28;20209;-80
2023/01/05 07:33:54;;;;;;;8.13;4.00;;;8.20;99.90;;;;;;4977875;28;20243;-80
2023/01/05 07:36:22;;;;;;;6.77;3.60;;;8.10;99.90;;;;;;4977557;28;20211;-78
2023/01/05 07:38:51;;;;;;;4.30;3.23;;;8.10;99.90;;;;;;4977694;28;20199;-86
2023/01/05 07:41:18;;;;;;;5.20;3.33;;;8.10;99.90;;;;;;4978285;28;20205;-83
2023/01/05 07:43:48;;;;;;;5.73;3.27;;;8.10;99.90;;;;;;4977822;28;20192;-81
2023/01/05 07:46:15;;;;;;;6.77;3.27;;;8.20;99.90;;;;;;4977429;28;20311;-83
2023/01/05 07:48:42;;;;;;;5.07;3.00;;;8.20;99.90;;;;;;4977291;28;20196;-77
2023/01/05 07:51:09;;;;;;;4.90;3.20;;;8.20;99.90;;;;;;4977858;28;20208;-79
2023/01/05 07:53:37;;;;;;;4.70;2.80;;;8.20;99.90;;;;;;4977177;28;20232;-83
2023/01/05 07:56:11;;;;;;;4.23;3.07;;;8.30;99.90;;;;;;4977914;28;20196;-77
2023/01/05 07:58:38;;;;;;;5.47;3.00;;;8.30;99.90;;;;;;4977504;28;20204;-83
2023/01/05 08:01:09;;;;;;;6.53;3.10;;;8.30;99.90;;;;;;4993761;28;20233;-76
2023/01/05 08:03:36;;;;;;;5.97;3.20;;;8.30;99.90;;;;;;4993795;28;20587;-82
2023/01/05 08:06:09;;;;;;;5.17;3.07;;;8.40;99.90;;;;;;4977004;28;20235;-85
2023/01/05 08:08:37;;;;;;;6.10;2.97;;;8.40;99.90;;;;;;4995004;28;20209;-81
2023/01/05 08:11:07;;;;;;;4.87;2.77;;;8.40;99.90;;;;;;4977447;28;20291;-80
2023/01/05 08:16:19;;;;;;;4.37;2.90;;;8.50;99.90;;;;;;4976988;28;20251;-79
2023/01/05 08:18:46;;;;;;;5.03;3.03;;;8.50;99.90;;;;;;4994354;28;20192;-80
2023/01/05 08:21:13;;;;;;;5.10;3.03;;;8.40;99.90;;;;;;4981228;28;20227;-85
2023/01/05 08:23:40;;;;;;;4.87;2.70;;;8.40;99.90;;;;;;5012905;28;20231;-93
2023/01/05 08:26:14;;;;;;;6.03;3.10;;;8.40;99.90;;;;;;4980232;28;20230;-80
2023/01/05 08:28:42;;;;;;;5.37;2.50;;;8.50;99.90;;;;;;5013289;28;20204;-86
2023/01/05 08:31:24;;;;;;;4.53;2.73;;;8.40;99.90;;;;;;4997064;28;20691;-88
2023/01/05 08:34:13;;;;;;;3.93;2.40;;;8.40;99.90;;;;;;4998160;28;20191;-91
2023/01/05 08:36:43;;;;;;;4.70;2.43;;;8.50;99.90;;;;;;5014324;28;20194;-84
2023/01/05 08:39:11;;;;;;;7.23;2.67;;;8.50;99.90;;;;;;4998249;28;20200;-82
2023/01/05 08:41:39;;;;;;;5.43;2.50;;;8.50;99.90;;;;;;4996744;28;20606;-75
2023/01/05 08:44:12;;;;;;;8.00;2.90;;;8.60;99.90;;;;;;5013511;28;20567;-79
2023/01/05 08:46:39;;;;;;;6.00;2.93;;;8.50;99.90;;;;;;4996427;28;20247;-81
2023/01/05 08:49:08;;;;;;;5.13;2.70;;;8.70;99.90;;;;;;5014503;28;20219;-77
2023/01/05 08:51:36;;;;;;;4.83;2.77;;;8.60;99.90;;;;;;5013994;28;20528;-82
2023/01/05 08:54:03;;;;;;;7.03;2.83;;;8.70;99.90;;;;;;4995892;28;20228;-82
2023/01/05 08:56:30;;;;;;;6.03;2.70;;;8.50;99.90;;;;;;4979992;28;20590;-81
2023/01/05 08:59:04;;;;;;;5.37;3.07;;;8.50;99.90;;;;;;4995152;28;20594;-78
2023/01/05 09:01:31;;;;;;;7.37;3.17;;;8.60;99.90;;;;;;4996129;28;20207;-85
2023/01/05 09:03:59;;;;;;;5.27;2.93;;;8.60;99.90;;;;;;4995889;28;20204;-80
2023/01/05 09:06:26;;;;;;;6.27;2.80;;;8.60;99.90;;;;;;5013197;28;20303;-81
2023/01/05 09:08:55;;;;;;;7.57;3.00;;;8.60;99.90;;;;;;5013688;28;20680;-89
2023/01/05 09:11:24;;;;;;;8.57;3.00;;;8.50;99.90;;;;;;4995889;28;20323;-87
2023/01/05 09:13:53;;;;;;;8.50;3.00;;;8.50;99.90;;;;;;4996241;28;20196;-74
2023/01/05 09:16:28;;;;;;;5.23;2.63;;;8.50;99.90;;;;;;4995384;28;20228;-73
2023/01/05 09:19:15;;;;;;;7.97;2.93;;;8.50;99.90;;;;;;4995394;28;20208;-74
2023/01/05 09:21:41;;;;;;;6.33;2.67;;;8.40;99.90;;;;;;4995272;28;20207;-78
2023/01/05 09:24:12;;;;;;;6.87;2.90;;;8.30;99.90;;;;;;4995273;28;20539;-74
2023/01/05 09:26:41;;;;;;;5.23;2.73;;;8.20;99.90;;;;;;4995129;28;20219;-80
2023/01/05 09:29:09;;;;;;;7.67;2.70;;;8.10;99.90;;;;;;4995539;28;20608;-76
2023/01/05 09:31:37;;;;;;;7.80;2.80;;;8.10;99.90;;;;;;5013254;28;20712;-74
2023/01/05 09:34:04;;;;;;;6.87;3.23;;;8.10;99.90;;;;;;5012354;28;20216;-76
2023/01/05 09:36:31;;;;;;;9.70;2.83;;;8.10;99.90;;;;;;5011600;28;20227;-78
2023/01/05 09:38:58;;;;;;;6.07;2.60;;;8.00;99.90;;;;;;4996045;28;20203;-79
2023/01/05 09:41:29;;;;;;;5.13;2.53;;;8.00;99.90;;;;;;4995394;28;20203;-77
2023/01/05 09:44:03;;;;;;;7.60;3.43;;;8.10;99.90;;;;;;5013096;28;20631;-78
2023/01/05 09:46:43;;;;;;;6.70;2.93;;;8.10;99.90;;;;;;5012820;28;20230;-78
2023/01/05 09:49:15;;;;;;;6.33;2.70;;;8.10;99.90;;;;;;5011533;28;20287;-75
2023/01/05 09:51:43;;;;;;;9.20;3.50;;;8.10;99.90;;;;;;4995991;28;20199;-76
2023/01/05 09:54:17;;;;;;;4.63;2.43;;;8.10;99.90;;;;;;4979290;28;20246;-77
2023/01/05 09:56:46;;;;;;;5.53;2.60;;;8.20;99.90;;;;;;4995607;28;20250;-73
2023/01/05 09:59:43;;;;;;;5.43;2.33;;;8.20;99.90;;;;;;4994966;28;20652;-76
2023/01/05 10:02:25;;;;;;;8.50;2.90;;;8.30;99.90;;;;;;4995576;28;20203;-74
2023/01/05 10:04:54;;;;;;;6.27;2.60;;;8.30;99.90;;;;;;5013072;28;20211;-80
2023/01/05 10:07:37;;;;;;;3.63;2.20;;;8.40;99.90;;;;;;5013121;28;20256;-83
2023/01/05 10:10:16;;;;;;;8.63;2.80;;;8.30;99.90;;;;;;4995837;28;20203;-81
2023/01/05 10:13:05;;;;;;;6.33;2.33;;;8.40;99.90;;;;;;5015591;28;20210;-81
2023/01/05 10:15:37;;;;;;;7.63;2.53;;;8.40;99.90;;;;;;4999951;28;20608;-86
2023/01/05 10:18:14;;;;;;;6.53;2.50;;;8.50;99.90;;;;;;4998985;28;20202;-76
2023/01/05 10:21:04;;;;;;;6.30;2.60;;;8.40;99.90;;;;;;4974927;28;20206;-73
2023/01/05 10:24:00;;;;;;;7.33;2.40;;;8.50;99.90;;;;;;4966790;28;20225;-73
2023/01/05 10:26:50;;;;;;;5.77;2.57;;;8.50;99.90;;;;;;4978875;28;20248;-78
2023/01/05 10:29:46;;;;;;;6.37;2.80;;;8.60;99.90;;;;;;4977581;28;20551;-73
2023/01/05 10:32:49;;;;;;;5.40;2.57;;;8.70;99.90;;;;;;4974940;28;20546;-74
2023/01/05 10:35:45;;;;;;;6.83;2.77;;;8.90;99.90;;;;;;4969985;28;20227;-75
2023/01/05 10:39:00;;;;;;;4.67;2.70;;;8.80;99.90;;;;;;4969697;28;20292;-78
2023/01/05 10:41:51;;;;;;;6.43;2.70;;;8.90;99.90;;;;;;4989316;28;20684;-72
2023/01/05 10:44:34;;;;;;;7.37;2.67;;;8.90;99.90;;;;;;4953861;28;20200;-75
2023/01/05 10:47:01;;;;;;;6.53;2.60;;;8.90;99.90;;;;;;4989065;28;20322;-75
2023/01/05 10:49:31;;;;;;;5.63;2.93;;;8.80;99.90;;;;;;4971698;28;20212;-75
2023/01/05 10:52:00;;;;;;;5.97;3.00;;;8.80;99.90;;;;;;4988254;28;20201;-76
2023/01/05 10:54:39;;;;;;;6.73;3.00;;;8.80;99.90;;;;;;4973332;28;20236;-75
2023/01/05 10:57:31;;;;;;;6.57;3.20;;;8.90;99.90;;;;;;4995873;28;20238;-75
2023/01/05 11:00:21;;;;;;;9.20;3.37;;;8.90;99.90;;;;;;4971923;28;20207;-74
2023/01/05 11:02:57;;;;;;;7.53;3.43;;;8.80;99.90;;;;;;4978872;28;20197;-74
2023/01/05 11:05:25;;;;;;;6.90;3.10;;;8.80;99.90;;;;;;4995494;28;20255;-75
2023/01/05 11:07:57;;;;;;;8.97;3.40;;;8.80;99.90;;;;;;4978220;28;20291;-77
2023/01/05 11:10:35;;;;;;;7.47;2.83;;;8.80;99.90;;;;;;4978273;28;20227;-75
2023/01/05 11:13:17;;;;;;;7.27;3.60;;;8.80;99.90;;;;;;4994120;28;20197;-76
2023/01/05 11:15:54;;;;;;;8.13;3.20;;;8.70;99.90;;;;;;4990263;28;20552;-76
2023/01/05 11:18:31;;;;;;;9.77;3.53;;;8.60;99.90;;;;;;4987190;28;20188;-75
2023/01/05 11:21:09;;;;;;;8.57;3.10;;;8.50;99.90;;;;;;4967286;28;20650;-74
2023/01/05 11:23:51;;;;;;;7.20;3.10;;;8.40;99.90;;;;;;4985879;28;20201;-78
2023/01/05 11:26:17;;;;;;;8.80;3.23;;;8.30;99.90;;;;;;4969081;28;20220;-76
2023/01/05 11:29:08;;;;;;;9.60;3.40;;;8.30;99.90;;;;;;4984455;28;20196;-77
2023/01/05 11:31:46;;;;;;;9.50;3.20;;;8.30;99.90;;;;;;4982118;28;20248;-74
2023/01/05 11:34:22;;;;;;;9.00;3.20;;;8.30;99.90;;;;;;4991703;28;20235;-76
2023/01/05 11:36:54;;;;;;;9.13;3.17;;;8.40;99.90;;;;;;4996124;28;20228;-75
2023/01/05 11:39:29;;;;;;;10.33;2.67;;;8.40;99.90;;;;;;4966683;28;20598;-78
2023/01/05 11:42:15;;;;;;;8.63;2.87;;;8.50;99.90;;;;;;4986420;28;20247;-77
2023/01/05 11:45:13;;;;;;;5.77;2.17;;;8.70;99.90;;;;;;4982849;28;20208;-75
2023/01/05 11:47:44;;;;;;;6.10;2.47;;;8.70;99.90;;;;;;4977630;28;20322;-77
2023/01/05 11:50:46;;;;;;;7.37;2.10;;;8.60;99.90;;;;;;4993893;28;20710;-77
2023/01/05 11:53:25;;;;;;;6.40;2.10;;;8.60;99.90;;;;;;4974866;28;20259;-80
2023/01/05 11:56:03;;;;;;;5.80;2.07;;;8.60;99.90;;;;;;4977515;28;20227;-76
2023/01/05 11:58:42;;;;;;;7.23;2.33;;;8.60;99.90;;;;;;4993728;28;20255;-75
2023/01/05 12:01:43;;;;;;;8.37;2.00;;;8.60;99.90;;;;;;4995184;28;20192;-76
2023/01/05 12:04:33;;;;;;;7.90;2.07;;;8.50;99.90;;;;;;4977323;28;20222;-74
2023/01/05 12:07:05;;;;;;;7.60;1.70;;;8.50;99.90;;;;;;4976736;28;20285;-73
2023/01/05 12:09:40;;;;;;;10.33;2.00;;;8.50;99.90;;;;;;4974787;28;20197;-74
2023/01/05 12:12:37;;;;;;;7.23;2.10;;;8.50;99.90;;;;;;4993599;28;20205;-73
2023/01/05 12:15:19;;;;;;;7.63;2.10;;;8.50;99.90;;;;;;4957229;28;20197;-77
2023/01/05 12:17:55;;;;;;;6.93;1.77;;;8.60;99.90;;;;;;4976974;28;20196;-71
2023/01/05 12:20:41;;;;;;;9.23;2.27;;;8.50;99.90;;;;;;4994358;28;20279;-75
2023/01/05 12:23:37;;;;;;;6.50;2.10;;;8.50;99.90;;;;;;4977111;28;20196;-73
2023/01/05 12:26:48;;;;;;;6.17;1.70;;;8.50;99.90;;;;;;4974695;28;20213;-75
2023/01/05 12:29:24;;;;;;;5.10;1.80;;;8.40;99.90;;;;;;4987610;28;20214;-74
2023/01/05 12:32:23;;;;;;;7.60;1.90;;;8.40;99.90;;;;;;4984325;28;20204;-74
2023/01/05 12:35:36;;;;;;;8.00;1.77;;;8.30;99.90;;;;;;4975899;28;20228;-77
2023/01/05 12:38:19;;;;;;;6.73;2.13;;;8.20;99.90;;;;;;4976790;28;20199;-77
2023/01/05 12:41:07;;;;;;;10.13;1.90;;;8.30;99.90;;;;;;4994150;28;20279;-78
2023/01/05 12:43:46;;;;;;;8.93;2.20;;;8.30;99.90;;;;;;4991451;28;20685;-74
2023/01/05 12:46:31;;;;;;;7.00;1.87;;;8.40;99.90;;;;;;4976320;28;20697;-71
2023/01/05 12:49:18;;;;;;;6.33;2.17;;;8.30;99.90;;;;;;4976645;28;20211;-74
2023/01/05 12:52:02;;;;;;;5.47;1.97;;;8.30;99.90;;;;;;4976272;28;20379;-72
2023/01/05 12:54:32;;;;;;;6.10;1.90;;;8.30;99.90;;;;;;4976281;28;20315;-71
2023/01/05 12:57:13;;;;;;;9.60;2.20;;;8.20;99.90;;;;;;4992574;28;20210;-71
2023/01/05 12:59:59;;;;;;;7.13;2.13;;;8.20;99.90;;;;;;4976318;28;20283;-73
2023/01/05 13:02:32;;;;;;;8.80;2.20;;;8.20;99.90;;;;;;4993650;28;20287;-72
2023/01/05 13:05:21;;;;;;;6.90;1.93;;;8.10;99.90;;;;;;4973393;28;20227;-76
2023/01/05 13:07:53;;;;;;;7.90;2.30;;;8.10;99.90;;;;;;4963942;28;20236;-72
2023/01/05 13:10:26;;;;;;;9.27;2.10;;;8.20;99.90;;;;;;4968032;28;20196;-74
2023/01/05 13:13:01;;;;;;;9.73;2.27;;;8.10;99.90;;;;;;4961540;28;20212;-71
2023/01/05 13:15:41;;;;;;;6.77;1.63;;;8.00;99.90;;;;;;4972975;28;20294;-73
2023/01/05 13:18:16;;;;;;;6.50;1.53;;;7.90;99.90;;;;;;4989334;28;20307;-75
2023/01/05 13:20:52;;;;;;;5.63;1.30;;;7.90;99.90;;;;;;4976896;28;20200;-76
2023/01/05 13:23:27;;;;;;;4.90;1.40;;;7.80;99.90;;;;;;4975596;28;20215;-75
2023/01/05 13:26:04;;;;;;;5.43;1.33;;;7.70;99.90;;;;;;4992384;28;20198;-71
2023/01/05 13:28:31;;;;;;;6.23;1.30;;;7.60;99.90;;;;;;4976051;28;20204;-72
2023/01/05 13:31:28;;;;;;;5.87;1.27;;;7.50;99.90;;;;;;4976334;28;20215;-71
2023/01/05 13:33:58;;;;;;;4.97;1.63;;;7.50;99.90;;;;;;4981735;28;20206;-71
2023/01/05 13:36:30;;;;;;;4.63;1.30;;;7.40;99.90;;;;;;4972154;28;20750;-74
2023/01/05 13:39:24;;;;;;;5.77;1.33;;;7.40;99.90;;;;;;4965975;28;20211;-74
2023/01/05 13:42:06;;;;;;;4.43;1.33;;;7.30;99.90;;;;;;4964336;28;20193;-72
2023/01/05 13:44:45;;;;;;;3.70;1.50;;;7.30;99.90;;;;;;4965255;28;20207;-74
2023/01/05 13:47:39;;;;;;;4.00;1.40;;;7.30;99.90;;;;;;4980189;28;20232;-74
2023/01/05 13:50:26;;;;;;;7.50;2.00;;;7.20;99.90;;;;;;4979822;28;20224;-73
2023/01/05 13:53:09;;;;;;;6.03;1.50;;;7.10;99.90;;;;;;4977490;28;20256;-74
2023/01/05 13:55:43;;;;;;;7.27;1.60;;;7.10;99.90;;;;;;4993185;28;20688;-79
2023/01/05 13:58:39;;;;;;;5.23;1.60;;;7.10;99.90;;;;;;4996156;28;20200;-79
2023/01/05 14:01:11;;;;;;;5.17;1.70;;;7.10;99.90;;;;;;4994966;28;20266;-70
2023/01/05 14:03:45;;;;;;;5.40;1.57;;;7.10;99.90;;;;;;4996276;28;20238;-72